createdAt,value
2019-03-27T00:01:24.436Z,6.50
2019-03-27T00:03:50.664Z,6.50
2019-03-27T00:06:16.890Z,6.50
2019-03-27T00:08:43.151Z,6.50
2019-03-27T00:11:09.352Z,6.50
2019-03-27T00:13:35.589Z,6.50
2019-03-27T00:16:02.109Z,6.40
2019-03-27T00:18:28.353Z,6.40
2019-03-27T00:20:54.581Z,6.40
2019-03-27T00:23:20.793Z,6.40
2019-03-27T00:25:47.040Z,6.40
2019-03-27T00:28:13.267Z,6.30
2019-03-27T00:30:39.513Z,6.30
2019-03-27T00:33:05.737Z,6.30
2019-03-27T00:35:32.005Z,6.20
2019-03-27T00:37:58.246Z,6.20
2019-03-27T00:40:24.483Z,6.20
2019-03-27T00:42:50.706Z,6.20
2019-03-27T00:45:26.533Z,6.20
2019-03-27T00:47:45.300Z,6.20
2019-03-27T00:50:11.720Z,6.20
2019-03-27T00:52:37.992Z,6.10
2019-03-27T00:55:05.936Z,6.10
2019-03-27T00:57:32.172Z,6.10
2019-03-27T00:59:58.438Z,6.10
2019-03-27T01:02:24.708Z,6.10
2019-03-27T01:04:50.929Z,6.10
2019-03-27T01:07:17.144Z,6.00
2019-03-27T01:09:43.412Z,6.00
2019-03-27T01:12:09.654Z,5.90
2019-03-27T01:14:35.879Z,5.90
2019-03-27T01:17:02.206Z,5.80
2019-03-27T01:19:28.428Z,5.80
2019-03-27T01:21:54.650Z,5.80
2019-03-27T01:24:20.895Z,5.80
2019-03-27T01:26:47.200Z,5.70
2019-03-27T01:29:13.409Z,5.70
2019-03-27T01:31:39.645Z,5.70
2019-03-27T01:34:05.884Z,5.70
2019-03-27T01:36:32.126Z,5.70
2019-03-27T01:38:58.358Z,5.60
2019-03-27T01:41:24.567Z,5.60
2019-03-27T01:43:50.849Z,5.60
2019-03-27T01:46:17.157Z,5.60
2019-03-27T01:48:43.390Z,5.70
2019-03-27T01:51:09.602Z,5.60
2019-03-27T01:53:35.837Z,5.60
2019-03-27T01:56:02.059Z,5.60
2019-03-27T01:58:28.298Z,5.60
2019-03-27T02:00:54.631Z,5.60
2019-03-27T02:03:20.849Z,5.60
2019-03-27T02:05:47.073Z,5.60
2019-03-27T02:08:13.340Z,5.60
2019-03-27T02:10:39.553Z,5.60
2019-03-27T02:13:05.780Z,5.60
2019-03-27T02:15:32.021Z,5.60
2019-03-27T02:17:58.291Z,5.60
2019-03-27T02:20:24.546Z,5.60
2019-03-27T02:22:50.782Z,5.60
2019-03-27T02:25:17.151Z,5.60
2019-03-27T02:28:05.021Z,5.60
2019-03-27T02:30:31.238Z,5.50
2019-03-27T02:32:57.815Z,5.60
2019-03-27T02:35:24.050Z,5.50
2019-03-27T02:37:50.265Z,5.50
2019-03-27T02:40:16.533Z,5.50
2019-03-27T02:42:42.759Z,5.50
2019-03-27T02:45:09.172Z,5.50
2019-03-27T02:47:35.535Z,5.50
2019-03-27T02:50:04.181Z,5.50
2019-03-27T02:52:30.446Z,5.50
2019-03-27T02:54:56.675Z,5.50
2019-03-27T02:57:22.909Z,5.50
2019-03-27T02:59:49.135Z,5.50
2019-03-27T03:02:15.359Z,5.50
2019-03-27T03:04:41.588Z,5.50
2019-03-27T03:07:08.170Z,5.50
2019-03-27T03:09:34.443Z,5.50
2019-03-27T03:12:00.673Z,5.50
2019-03-27T03:14:26.900Z,5.50
2019-03-27T03:16:53.147Z,5.50
2019-03-27T03:19:19.356Z,5.50
2019-03-27T03:21:45.584Z,5.50
2019-03-27T03:24:12.120Z,5.40
2019-03-27T03:26:38.352Z,5.50
2019-03-27T03:29:04.584Z,5.50
2019-03-27T03:31:30.811Z,5.50
2019-03-27T03:33:57.160Z,5.40
2019-03-27T03:36:23.396Z,5.50
2019-03-27T03:38:49.630Z,5.40
2019-03-27T03:41:15.906Z,5.40
2019-03-27T03:43:42.155Z,5.40
2019-03-27T03:46:08.379Z,5.40
2019-03-27T03:48:34.624Z,5.40
2019-03-27T03:51:01.945Z,5.40
2019-03-27T03:53:28.704Z,5.30
2019-03-27T03:55:57.117Z,5.30
2019-03-27T03:58:24.980Z,5.30
2019-03-27T04:00:51.623Z,5.30
2019-03-27T04:03:18.455Z,5.40
2019-03-27T04:05:44.674Z,5.30
2019-03-27T04:08:10.941Z,5.30
2019-03-27T04:10:37.165Z,5.20
2019-03-27T04:13:03.384Z,5.20
2019-03-27T04:15:29.657Z,5.20
2019-03-27T04:17:55.885Z,5.10
2019-03-27T04:20:22.114Z,5.10
2019-03-27T04:22:48.336Z,5.10
2019-03-27T04:25:14.591Z,5.10
2019-03-27T04:27:40.853Z,5.10
2019-03-27T04:30:07.771Z,5.20
2019-03-27T04:32:34.055Z,5.10
2019-03-27T04:35:00.609Z,5.10
2019-03-27T04:37:26.899Z,5.00
2019-03-27T04:39:53.125Z,5.00
2019-03-27T04:42:19.356Z,5.00
2019-03-27T04:44:45.581Z,5.00
2019-03-27T04:47:11.818Z,5.00
2019-03-27T04:49:38.067Z,5.00
2019-03-27T04:52:04.329Z,4.90
2019-03-27T04:54:30.581Z,4.90
2019-03-27T04:56:56.820Z,4.90
2019-03-27T04:59:23.048Z,4.90
2019-03-27T05:01:49.278Z,4.80
2019-03-27T05:04:15.903Z,4.90
2019-03-27T05:06:42.192Z,4.80
2019-03-27T05:09:08.414Z,4.80
2019-03-27T05:11:34.652Z,4.80
2019-03-27T05:14:00.999Z,4.80
2019-03-27T05:16:27.255Z,4.80
2019-03-27T05:18:53.492Z,4.80
2019-03-27T05:21:19.735Z,4.80
2019-03-27T05:23:46.040Z,4.80
2019-03-27T05:26:12.271Z,4.70
2019-03-27T05:28:38.546Z,4.70
2019-03-27T05:31:05.006Z,4.70
2019-03-27T05:33:32.824Z,4.70
2019-03-27T05:35:59.101Z,4.70
2019-03-27T05:38:25.330Z,4.80
2019-03-27T05:40:51.599Z,4.80
2019-03-27T05:43:17.852Z,4.80
2019-03-27T05:45:44.077Z,4.80
2019-03-27T05:48:10.324Z,4.80
2019-03-27T05:50:36.779Z,4.80
2019-03-27T05:53:03.127Z,4.80
2019-03-27T05:55:29.354Z,4.80
2019-03-27T05:57:55.670Z,4.80
2019-03-27T06:00:21.889Z,4.80
2019-03-27T06:02:48.457Z,4.70
2019-03-27T06:05:14.677Z,4.70
2019-03-27T06:07:40.903Z,4.80
2019-03-27T06:10:07.444Z,4.70
2019-03-27T06:12:33.664Z,4.80
2019-03-27T06:14:59.922Z,4.80
2019-03-27T06:17:26.168Z,4.80
2019-03-27T06:19:52.399Z,4.90
2019-03-27T06:22:18.649Z,4.80
2019-03-27T06:24:45.008Z,4.80
2019-03-27T06:27:11.356Z,4.80
2019-03-27T06:29:37.583Z,4.80
2019-03-27T06:32:03.923Z,4.80
2019-03-27T06:34:31.615Z,4.80
2019-03-27T06:36:57.847Z,4.80
2019-03-27T06:39:24.068Z,4.90
2019-03-27T06:41:50.288Z,4.90
2019-03-27T06:44:16.499Z,4.90
2019-03-27T06:46:42.743Z,4.90
2019-03-27T06:49:09.037Z,4.90
2019-03-27T06:51:40.256Z,4.90
2019-03-27T06:54:03.367Z,4.90
2019-03-27T06:56:31.002Z,5.00
2019-03-27T06:58:57.255Z,4.90
2019-03-27T07:01:23.483Z,5.00
2019-03-27T07:03:49.711Z,5.00
2019-03-27T07:06:15.965Z,5.00
2019-03-27T07:08:42.206Z,5.00
2019-03-27T07:11:10.336Z,4.90
2019-03-27T07:13:36.557Z,5.00
2019-03-27T07:16:02.910Z,5.00
2019-03-27T07:18:39.449Z,5.00
2019-03-27T07:20:57.890Z,5.00
2019-03-27T07:23:24.681Z,5.00
2019-03-27T07:25:50.973Z,5.00
2019-03-27T07:28:17.181Z,5.00
2019-03-27T07:30:43.465Z,5.10
2019-03-27T07:33:09.667Z,5.10
2019-03-27T07:35:35.887Z,5.10
2019-03-27T07:38:02.145Z,5.10
2019-03-27T07:40:28.408Z,5.10
2019-03-27T07:42:54.729Z,5.10
2019-03-27T07:45:21.172Z,5.00
2019-03-27T07:47:48.258Z,5.10
2019-03-27T07:50:15.026Z,5.10
2019-03-27T07:52:41.434Z,5.10
2019-03-27T07:55:18.740Z,5.10
2019-03-27T07:57:36.241Z,5.20
2019-03-27T08:00:16.083Z,5.20
2019-03-27T08:02:42.523Z,5.20
2019-03-27T08:05:10.035Z,5.30
2019-03-27T08:07:36.323Z,5.40
2019-03-27T08:10:05.591Z,5.40
2019-03-27T08:12:31.864Z,5.50
2019-03-27T08:14:58.702Z,5.50
2019-03-27T08:17:24.976Z,5.50
2019-03-27T08:19:51.278Z,5.50
2019-03-27T08:22:20.571Z,5.60
2019-03-27T08:24:46.830Z,5.60
2019-03-27T08:27:16.321Z,5.70
2019-03-27T08:29:42.618Z,5.70
2019-03-27T08:32:10.954Z,5.70
2019-03-27T08:34:37.304Z,5.80
2019-03-27T08:37:03.553Z,5.80
2019-03-27T08:39:29.798Z,5.80
2019-03-27T08:41:56.044Z,5.90
2019-03-27T08:44:22.270Z,5.90
2019-03-27T08:46:48.908Z,5.90
2019-03-27T08:49:21.895Z,5.90
2019-03-27T08:51:43.446Z,6.00
2019-03-27T08:54:09.769Z,6.10
2019-03-27T08:56:35.992Z,6.10
2019-03-27T08:59:02.231Z,6.10
2019-03-27T09:01:28.607Z,6.10
2019-03-27T09:03:54.832Z,6.10
2019-03-27T09:06:33.146Z,6.00
2019-03-27T09:08:49.243Z,6.00
2019-03-27T09:11:15.469Z,6.00
2019-03-27T09:13:41.704Z,5.90
2019-03-27T09:16:07.942Z,5.90
2019-03-27T09:18:34.380Z,6.00
2019-03-27T09:21:00.679Z,6.00
2019-03-27T09:23:26.984Z,6.10
2019-03-27T09:25:53.241Z,6.20
2019-03-27T09:28:19.574Z,6.20
2019-03-27T09:30:45.827Z,6.20
2019-03-27T09:33:12.148Z,6.20
2019-03-27T09:35:38.492Z,6.20
2019-03-27T09:38:04.725Z,6.20
2019-03-27T09:40:31.004Z,6.10
2019-03-27T09:42:57.248Z,6.20
2019-03-27T09:45:23.478Z,6.30
2019-03-27T09:47:49.706Z,6.30
2019-03-27T09:50:16.035Z,6.40
2019-03-27T09:52:42.268Z,6.60
2019-03-27T09:55:08.811Z,6.80
2019-03-27T09:57:35.317Z,6.90
2019-03-27T10:00:05.583Z,7.10
2019-03-27T10:02:31.800Z,7.40
2019-03-27T10:05:00.929Z,7.60
2019-03-27T10:07:34.191Z,7.70
2019-03-27T10:10:00.643Z,7.80
2019-03-27T10:12:26.871Z,7.90
2019-03-27T10:14:53.151Z,7.90
2019-03-27T10:17:19.626Z,8.00
2019-03-27T10:19:45.964Z,8.00
2019-03-27T10:22:12.299Z,8.10
2019-03-27T10:24:38.700Z,8.20
2019-03-27T10:27:04.936Z,8.30
2019-03-27T10:29:31.186Z,8.30
2019-03-27T10:31:57.459Z,8.30
2019-03-27T10:34:23.696Z,8.30
2019-03-27T10:36:49.939Z,8.30
2019-03-27T10:39:16.166Z,8.30
2019-03-27T10:41:42.424Z,8.30
2019-03-27T10:44:10.853Z,8.30
2019-03-27T10:46:37.102Z,8.30
2019-03-27T10:49:04.566Z,8.30
2019-03-27T10:51:31.095Z,8.20
2019-03-27T10:53:57.335Z,8.10
2019-03-27T10:56:24.598Z,8.20
2019-03-27T10:58:50.842Z,8.20
2019-03-27T11:01:17.140Z,8.20
2019-03-27T11:03:43.375Z,8.20
2019-03-27T11:06:09.643Z,8.10
2019-03-27T11:08:35.852Z,8.00
2019-03-27T11:11:02.172Z,7.90
2019-03-27T11:13:28.394Z,7.80
2019-03-27T11:15:54.640Z,7.80
2019-03-27T11:18:21.164Z,7.80
2019-03-27T11:20:47.414Z,7.80
2019-03-27T11:23:13.690Z,7.70
2019-03-27T11:25:40.023Z,7.80
2019-03-27T11:28:06.273Z,7.90
2019-03-27T11:30:35.119Z,7.90
2019-03-27T11:33:01.373Z,7.90
2019-03-27T11:35:27.620Z,8.00
2019-03-27T11:37:53.848Z,8.00
2019-03-27T11:40:20.094Z,8.10
2019-03-27T11:42:46.329Z,8.10
2019-03-27T11:45:12.864Z,8.20
2019-03-27T11:47:39.075Z,8.30
2019-03-27T11:50:08.433Z,8.40
2019-03-27T11:52:34.760Z,8.40
2019-03-27T11:55:01.237Z,8.50
2019-03-27T11:57:27.516Z,8.60
2019-03-27T11:59:54.489Z,8.70
2019-03-27T12:02:21.039Z,8.80
2019-03-27T12:04:47.272Z,8.80
2019-03-27T12:07:13.520Z,8.90
2019-03-27T12:09:39.749Z,8.90
2019-03-27T12:12:06.113Z,9.00
2019-03-27T12:14:32.613Z,9.10
2019-03-27T12:16:58.855Z,9.10
2019-03-27T12:19:25.090Z,9.00
2019-03-27T12:21:54.570Z,9.10
2019-03-27T12:24:19.506Z,9.20
2019-03-27T12:26:45.744Z,9.20
2019-03-27T12:29:11.985Z,9.20
2019-03-27T12:31:39.356Z,9.20
2019-03-27T12:34:05.606Z,9.20
2019-03-27T12:36:31.826Z,9.20
2019-03-27T12:38:58.051Z,9.20
2019-03-27T12:41:24.287Z,9.20
2019-03-27T12:43:50.506Z,9.10
2019-03-27T12:46:16.734Z,9.20
2019-03-27T12:48:43.009Z,9.20
2019-03-27T12:51:12.979Z,9.20
2019-03-27T12:53:37.366Z,9.10
2019-03-27T12:56:03.704Z,9.00
2019-03-27T12:58:29.926Z,9.00
2019-03-27T13:00:56.174Z,9.00
2019-03-27T13:03:22.397Z,9.10
2019-03-27T13:05:48.714Z,9.00
2019-03-27T13:08:14.938Z,9.00
2019-03-27T13:10:41.170Z,9.00
2019-03-27T13:13:07.413Z,9.00
2019-03-27T13:15:33.732Z,9.00
2019-03-27T13:17:59.971Z,9.00
2019-03-27T13:20:26.225Z,9.00
2019-03-27T13:22:52.516Z,9.10
2019-03-27T13:25:18.952Z,9.20
2019-03-27T13:27:47.472Z,9.30
2019-03-27T13:30:14.169Z,9.40
2019-03-27T13:32:40.385Z,9.40
2019-03-27T13:35:07.229Z,9.30
2019-03-27T13:37:33.457Z,9.30
2019-03-27T13:40:00.139Z,9.20
2019-03-27T13:42:26.469Z,9.30
2019-03-27T13:44:52.687Z,9.40
2019-03-27T13:47:18.922Z,9.40
2019-03-27T13:49:45.141Z,9.40
2019-03-27T13:52:11.377Z,9.50
2019-03-27T13:54:37.612Z,9.60
2019-03-27T13:57:04.206Z,9.70
2019-03-27T13:59:30.424Z,9.80
2019-03-27T14:01:56.696Z,9.80
2019-03-27T14:04:23.171Z,9.80
2019-03-27T14:06:49.405Z,9.80
2019-03-27T14:09:16.469Z,9.80
2019-03-27T14:11:42.728Z,9.70
2019-03-27T14:14:11.570Z,9.60
2019-03-27T14:16:37.132Z,9.60
2019-03-27T14:19:03.459Z,9.60
2019-03-27T14:21:29.706Z,9.40
2019-03-27T14:23:55.924Z,9.40
2019-03-27T14:26:22.302Z,9.40
2019-03-27T14:28:48.615Z,9.30
2019-03-27T14:31:14.902Z,9.30
2019-03-27T14:33:41.152Z,9.20
2019-03-27T14:36:07.380Z,9.20
2019-03-27T14:38:33.606Z,9.10
2019-03-27T14:40:59.857Z,9.10
2019-03-27T14:43:27.148Z,9.10
2019-03-27T14:45:53.544Z,9.10
2019-03-27T14:48:19.838Z,9.20
2019-03-27T14:50:46.203Z,9.20
2019-03-27T14:53:12.868Z,9.20
2019-03-27T14:55:39.248Z,9.20
2019-03-27T14:58:05.477Z,9.20
2019-03-27T15:00:31.720Z,9.10
2019-03-27T15:02:57.946Z,9.10
2019-03-27T15:05:24.226Z,9.10
2019-03-27T15:07:50.623Z,9.10
2019-03-27T15:10:16.996Z,9.10
2019-03-27T15:12:43.328Z,9.10
2019-03-27T15:15:10.451Z,9.10
2019-03-27T15:17:37.292Z,9.10
2019-03-27T15:20:05.648Z,9.10
2019-03-27T15:22:31.903Z,9.00
2019-03-27T15:24:58.121Z,9.00
2019-03-27T15:27:24.355Z,9.00
2019-03-27T15:29:50.576Z,9.10
2019-03-27T15:32:16.821Z,9.10
2019-03-27T15:34:45.365Z,9.00
2019-03-27T15:37:11.573Z,9.00
2019-03-27T15:39:37.843Z,9.00
2019-03-27T15:42:04.069Z,9.00
2019-03-27T15:44:30.297Z,8.90
2019-03-27T15:46:56.728Z,9.00
2019-03-27T15:49:23.058Z,9.00
2019-03-27T15:51:49.276Z,8.90
2019-03-27T15:54:15.527Z,8.90
2019-03-27T15:56:41.788Z,8.90
2019-03-27T15:59:08.037Z,8.90
2019-03-27T16:01:34.470Z,9.00
2019-03-27T16:04:00.729Z,8.90
2019-03-27T16:06:26.969Z,8.90
2019-03-27T16:08:53.193Z,8.80
2019-03-27T16:11:19.420Z,8.80
2019-03-27T16:13:45.723Z,8.90
2019-03-27T16:16:12.042Z,8.90
2019-03-27T16:18:38.303Z,8.90
2019-03-27T16:21:04.650Z,8.90
2019-03-27T16:23:32.390Z,8.80
2019-03-27T16:25:58.719Z,8.80
2019-03-27T16:28:25.185Z,8.80
2019-03-27T16:31:07.116Z,8.80
2019-03-27T16:36:56.510Z,8.70
2019-03-27T16:39:27.284Z,8.70
2019-03-27T16:41:53.710Z,8.70
2019-03-27T16:44:20.337Z,8.70
2019-03-27T16:46:46.909Z,8.70
2019-03-27T16:49:13.271Z,8.60
2019-03-27T16:51:39.856Z,8.60
2019-03-27T16:54:07.029Z,8.60
2019-03-27T16:56:33.261Z,8.60
2019-03-27T16:59:00.036Z,8.60
2019-03-27T17:01:26.409Z,8.60
2019-03-27T17:03:52.711Z,8.60
2019-03-27T17:06:20.886Z,8.60
2019-03-27T17:08:47.125Z,8.60
2019-03-27T17:11:13.355Z,8.60
2019-03-27T17:13:41.536Z,8.50
2019-03-27T17:16:10.025Z,8.60
2019-03-27T17:18:36.699Z,8.50
2019-03-27T17:21:03.065Z,8.50
2019-03-27T17:23:29.539Z,8.50
2019-03-27T17:25:55.843Z,8.40
2019-03-27T17:28:22.206Z,8.50
2019-03-27T17:30:48.653Z,8.40
2019-03-27T17:33:15.045Z,8.40
2019-03-27T17:35:41.420Z,8.40
2019-03-27T17:38:10.846Z,8.40
2019-03-27T17:40:35.862Z,8.40
2019-03-27T17:43:02.135Z,8.40
2019-03-27T17:45:28.475Z,8.30
2019-03-27T17:47:54.729Z,8.40
2019-03-27T17:50:21.230Z,8.30
2019-03-27T17:52:47.556Z,8.30
2019-03-27T17:55:13.936Z,8.30
2019-03-27T17:57:40.226Z,8.30
2019-03-27T18:00:09.487Z,8.30
2019-03-27T18:02:35.821Z,8.20
2019-03-27T18:05:05.406Z,8.20
2019-03-27T18:07:31.649Z,8.20
2019-03-27T18:09:57.895Z,8.20
2019-03-27T18:12:24.215Z,8.20
2019-03-27T18:14:50.475Z,8.10
2019-03-27T18:17:16.766Z,8.10
2019-03-27T18:19:43.015Z,8.10
2019-03-27T18:22:09.295Z,8.10
2019-03-27T18:24:35.557Z,8.10
2019-03-27T18:27:01.784Z,8.10
2019-03-27T18:29:29.473Z,8.10
2019-03-27T18:31:55.772Z,8.10
2019-03-27T18:34:22.016Z,8.10
2019-03-27T18:36:48.289Z,8.10
2019-03-27T18:39:14.514Z,8.10
2019-03-27T18:41:40.900Z,8.10
2019-03-27T18:44:07.279Z,8.10
2019-03-27T18:46:33.753Z,8.10
2019-03-27T18:49:00.144Z,8.10
2019-03-27T18:51:26.419Z,8.10
2019-03-27T18:53:59.461Z,8.10
2019-03-27T18:56:20.987Z,8.00
2019-03-27T18:58:47.972Z,8.00
2019-03-27T19:01:14.571Z,8.00
2019-03-27T19:03:41.018Z,8.00
2019-03-27T19:06:07.917Z,8.00
2019-03-27T19:08:34.333Z,8.00
2019-03-27T19:11:01.373Z,8.00
2019-03-27T19:13:28.389Z,8.00
2019-03-27T19:15:56.338Z,8.00
2019-03-27T19:18:23.703Z,8.00
2019-03-27T19:20:50.886Z,8.00
2019-03-27T19:23:18.146Z,8.00
2019-03-27T19:25:45.965Z,8.00
2019-03-27T19:28:14.364Z,8.00
2019-03-27T19:30:42.318Z,8.00
2019-03-27T19:33:10.287Z,8.00
2019-03-27T19:35:38.169Z,8.00
2019-03-27T19:38:06.773Z,8.00
2019-03-27T19:40:34.667Z,8.00
2019-03-27T19:43:02.642Z,8.00
2019-03-27T19:45:30.882Z,8.00
2019-03-27T19:48:04.828Z,8.00
2019-03-27T19:50:35.047Z,7.90
2019-03-27T19:53:05.450Z,8.00
2019-03-27T19:55:36.676Z,8.00
2019-03-27T20:01:02.483Z,7.90
2019-03-27T20:03:34.819Z,7.90
2019-03-27T20:06:03.413Z,7.90
2019-03-27T20:08:31.381Z,7.90
2019-03-27T20:10:59.469Z,7.90
2019-03-27T20:13:28.055Z,7.90
2019-03-27T20:15:56.519Z,7.90
2019-03-27T20:18:24.670Z,7.90
2019-03-27T20:21:44.379Z,7.90
2019-03-27T20:27:04.958Z,7.90
2019-03-27T20:29:33.650Z,7.90
2019-03-27T20:32:03.716Z,7.90
2019-03-27T20:34:31.801Z,7.90
2019-03-27T20:36:59.797Z,7.90
2019-03-27T20:39:27.824Z,7.90
2019-03-27T20:41:55.772Z,7.80
2019-03-27T20:44:23.984Z,7.80
2019-03-27T20:46:51.885Z,7.70
2019-03-27T20:49:19.969Z,7.70
2019-03-27T20:51:47.876Z,7.70
2019-03-27T20:54:15.641Z,7.70
2019-03-27T20:56:49.534Z,7.70
2019-03-27T20:59:18.484Z,7.70
2019-03-27T21:01:51.623Z,7.70
2019-03-27T21:04:20.297Z,7.70
2019-03-27T21:09:36.279Z,7.60
2019-03-27T21:12:07.012Z,7.70
2019-03-27T21:14:34.680Z,7.70
2019-03-27T21:17:01.898Z,7.60
2019-03-27T21:19:29.199Z,7.70
2019-03-27T21:21:56.200Z,7.60
2019-03-27T21:24:23.226Z,7.60
2019-03-27T21:26:50.053Z,7.60
2019-03-27T21:29:16.683Z,7.60
2019-03-27T21:31:43.423Z,7.60
2019-03-27T21:34:09.805Z,7.60
2019-03-27T21:36:36.046Z,7.60
2019-03-27T21:39:05.467Z,7.50
2019-03-27T21:41:31.710Z,7.50
2019-03-27T21:43:57.947Z,7.50
2019-03-27T21:46:24.259Z,7.50
2019-03-27T21:48:50.434Z,7.40
2019-03-27T21:51:16.707Z,7.50
2019-03-27T21:53:42.946Z,7.40
2019-03-27T21:56:09.219Z,7.50
2019-03-27T21:58:35.452Z,7.50
2019-03-27T22:01:01.833Z,7.40
2019-03-27T22:03:28.070Z,7.40
2019-03-27T22:05:54.419Z,7.40
2019-03-27T22:08:20.806Z,7.40
2019-03-27T22:10:47.046Z,7.30
2019-03-27T22:13:13.286Z,7.30
2019-03-27T22:15:39.635Z,7.30
2019-03-27T22:18:05.991Z,7.30
2019-03-27T22:20:32.300Z,7.30
2019-03-27T22:22:58.850Z,7.20
2019-03-27T22:25:35.181Z,7.20
2019-03-27T22:27:53.330Z,7.20
2019-03-27T22:30:19.616Z,7.30
2019-03-27T22:32:45.843Z,7.30
2019-03-27T22:35:12.554Z,7.30
2019-03-27T22:37:38.797Z,7.30
2019-03-27T22:40:06.402Z,7.30
2019-03-27T22:42:33.247Z,7.20
2019-03-27T22:44:59.489Z,7.30
2019-03-27T22:47:25.988Z,7.30
2019-03-27T22:49:52.254Z,7.20
2019-03-27T22:52:18.573Z,7.20
2019-03-27T22:54:44.813Z,7.20
2019-03-27T22:57:11.082Z,7.20
2019-03-27T22:59:37.630Z,7.20
2019-03-27T23:02:04.383Z,7.20
2019-03-27T23:04:30.623Z,7.10
2019-03-27T23:06:56.848Z,7.10
2019-03-27T23:09:23.286Z,7.10
2019-03-27T23:11:49.527Z,7.10
2019-03-27T23:14:15.749Z,7.10
2019-03-27T23:16:42.209Z,7.10
2019-03-27T23:19:08.584Z,7.10
2019-03-27T23:21:34.839Z,7.10
2019-03-27T23:24:01.164Z,7.10
2019-03-27T23:26:27.505Z,7.10
2019-03-27T23:28:53.794Z,7.10
2019-03-27T23:31:19.981Z,7.10
2019-03-27T23:33:46.759Z,7.10
2019-03-27T23:36:13.383Z,7.00
2019-03-27T23:38:39.824Z,7.10
2019-03-27T23:41:06.336Z,7.00
2019-03-27T23:43:32.659Z,7.10
2019-03-27T23:45:59.092Z,7.10
2019-03-27T23:48:25.341Z,7.00
2019-03-27T23:50:51.607Z,7.10
2019-03-27T23:53:17.850Z,7.10
2019-03-27T23:55:44.079Z,7.00
2019-03-27T23:58:10.339Z,7.00
